Time;durP1;ratioP1;P1;durP2;ratioP2;P2;SDS_P1;SDS_P2;PMS_P1;PMS_P2;Temp;Humidity;BMP_temperature;BMP_pressure;BME280_temperature;BME280_humidity;BME280_pressure;Samples;Min_cycle;Max_cycle;Signal;HPM_P1;HPM_P2
2024/02/29 00:02:23;;;;;;;1.45;1.15;;;2.50;99.60;;;;;;4981293;28;20037;-84
2024/02/29 00:04:50;;;;;;;4.40;1.73;;;2.40;82.90;;;;;;4980112;28;20492;-84
2024/02/29 00:07:16;;;;;;;1.42;1.33;;;2.50;67.90;;;;;;4984878;28;20089;-84
2024/02/29 00:09:42;;;;;;;5.43;2.03;;;2.30;23.50;;;;;;4983771;28;20030;-84
2024/02/29 00:12:08;;;;;;;1.42;0.80;;;2.20;22.40;;;;;;4981811;28;20031;-85
2024/02/29 00:14:37;;;;;;;1.73;1.60;;;2.00;24.00;;;;;;4985169;28;20034;-85
2024/02/29 00:17:03;;;;;;;2.58;1.48;;;1.90;43.10;;;;;;4982027;28;20031;-84
2024/02/29 00:19:31;;;;;;;3.45;1.30;;;1.90;79.30;;;;;;4983902;28;20058;-85
2024/02/29 00:21:57;;;;;;;1.50;0.93;;;1.90;95.20;;;;;;4989068;28;20503;-85
2024/02/29 00:24:23;;;;;;;1.70;1.60;;;1.90;99.90;;;;;;4979075;28;20030;-83
2024/02/29 00:26:49;;;;;;;0.68;0.68;;;2.00;99.90;;;;;;4984033;28;20039;-85
2024/02/29 00:29:15;;;;;;;0.98;0.90;;;2.00;99.90;;;;;;4980092;28;20054;-84
2024/02/29 00:31:46;;;;;;;2.63;2.13;;;2.10;96.40;;;;;;4990997;28;20030;-85
2024/02/29 00:34:12;;;;;;;1.08;0.95;;;2.10;90.60;;;;;;4985708;28;20045;-86
2024/02/29 00:36:39;;;;;;;0.98;0.95;;;2.10;60.10;;;;;;4980206;28;20065;-85
2024/02/29 00:39:06;;;;;;;1.55;1.20;;;2.00;45.70;;;;;;4987525;28;20030;-85
2024/02/29 00:41:33;;;;;;;0.85;0.85;;;2.00;47.10;;;;;;4965304;28;20070;-85
2024/02/29 00:43:59;;;;;;;2.20;2.00;;;1.90;63.30;;;;;;4990904;28;20050;-85
2024/02/29 00:46:26;;;;;;;2.67;2.08;;;1.90;82.70;;;;;;4994753;28;20037;-84
2024/02/29 00:48:52;;;;;;;1.27;1.15;;;2.00;95.20;;;;;;4995987;28;20041;-84
2024/02/29 00:51:19;;;;;;;1.45;1.33;;;1.90;83.80;;;;;;4992877;28;20041;-85
2024/02/29 00:53:45;;;;;;;2.58;2.05;;;1.90;73.80;;;;;;4991976;28;20041;-84
2024/02/29 00:56:12;;;;;;;1.48;1.38;;;1.90;68.60;;;;;;4990486;28;20384;-84
2024/02/29 00:58:38;;;;;;;1.85;1.75;;;1.70;72.10;;;;;;5008858;28;20040;-85
2024/02/29 01:01:04;;;;;;;3.78;1.65;;;1.70;89.60;;;;;;4989390;28;20468;-86
2024/02/29 01:03:30;;;;;;;3.75;2.63;;;1.60;96.00;;;;;;4987633;28;20037;-85
2024/02/29 01:05:57;;;;;;;1.90;1.10;;;1.60;99.90;;;;;;4987555;28;20862;-85
2024/02/29 01:08:23;;;;;;;0.35;0.35;;;1.60;99.90;;;;;;4982776;28;20058;-84
2024/02/29 01:10:49;;;;;;;1.23;1.13;;;1.60;99.90;;;;;;4986906;28;20042;-81
2024/02/29 01:13:15;;;;;;;1.83;1.08;;;1.50;99.90;;;;;;4985636;28;20038;-85
2024/02/29 01:15:41;;;;;;;3.30;2.20;;;1.60;99.90;;;;;;4987420;28;20094;-85
2024/02/29 01:18:07;;;;;;;0.47;0.47;;;1.50;99.90;;;;;;4985404;28;20495;-84
2024/02/29 01:20:34;;;;;;;2.38;1.58;;;1.60;99.90;;;;;;4974310;28;20038;-84
2024/02/29 01:23:00;;;;;;;0.45;0.45;;;1.50;99.90;;;;;;4982918;28;20046;-85
2024/02/29 01:25:26;;;;;;;10.00;2.65;;;1.40;99.90;;;;;;4981039;28;20026;-85
2024/02/29 01:27:52;;;;;;;6.43;2.13;;;1.50;99.90;;;;;;4987487;28;20035;-85
2024/02/29 01:30:19;;;;;;;3.45;3.15;;;1.50;99.90;;;;;;4989490;28;20030;-85
2024/02/29 01:32:45;;;;;;;1.55;0.90;;;1.40;99.90;;;;;;4990170;28;20429;-84
2024/02/29 01:35:11;;;;;;;4.85;1.50;;;1.50;99.90;;;;;;4985192;28;20027;-83
2024/02/29 01:37:37;;;;;;;1.10;1.02;;;1.40;99.90;;;;;;4988479;28;20057;-85
2024/02/29 01:40:04;;;;;;;0.60;0.60;;;1.30;99.90;;;;;;4993760;28;20061;-84
2024/02/29 01:42:30;;;;;;;2.45;1.73;;;1.30;99.90;;;;;;4994220;28;20051;-84
2024/02/29 01:44:57;;;;;;;11.80;3.22;;;1.20;99.90;;;;;;4988558;28;20035;-84
2024/02/29 01:47:24;;;;;;;3.25;3.05;;;1.10;99.90;;;;;;4988925;28;20373;-85
2024/02/29 01:49:53;;;;;;;9.77;2.83;;;1.00;99.90;;;;;;4986102;28;20041;-82
2024/02/29 01:52:21;;;;;;;1.90;1.75;;;1.00;99.90;;;;;;4982005;28;20031;-85
2024/02/29 01:54:49;;;;;;;3.67;3.40;;;1.00;99.90;;;;;;4979745;28;20062;-84
2024/02/29 01:57:15;;;;;;;2.17;2.08;;;0.90;99.90;;;;;;4985450;28;20027;-84
2024/02/29 01:59:42;;;;;;;1.38;1.33;;;0.80;99.90;;;;;;4987716;28;20046;-84
2024/02/29 02:02:08;;;;;;;0.88;0.88;;;0.80;99.90;;;;;;4988599;28;20037;-83
2024/02/29 02:04:34;;;;;;;10.02;1.83;;;0.70;99.90;;;;;;4988600;28;20041;-84
2024/02/29 02:07:03;;;;;;;1.10;1.05;;;0.80;99.90;;;;;;4984096;28;20035;-83
2024/02/29 02:09:29;;;;;;;3.60;3.30;;;0.80;99.90;;;;;;4982379;28;20039;-82
2024/02/29 02:11:56;;;;;;;2.40;1.13;;;0.90;1.00;;;;;;4984243;28;20035;-83
2024/02/29 02:14:22;;;;;;;1.88;1.63;;;0.90;99.90;;;;;;4974414;28;20038;-83
2024/02/29 02:16:49;;;;;;;3.35;1.80;;;0.80;99.90;;;;;;4973800;28;20034;-83
2024/02/29 02:19:19;;;;;;;2.15;1.98;;;0.70;99.90;;;;;;4983468;28;20069;-82
2024/02/29 02:21:45;;;;;;;1.77;1.65;;;0.60;99.90;;;;;;4984618;28;20035;-83
2024/02/29 02:24:11;;;;;;;4.00;2.45;;;0.50;99.90;;;;;;4978708;28;20034;-82
2024/02/29 02:26:37;;;;;;;1.00;1.00;;;0.50;99.90;;;;;;4980110;28;20043;-84
2024/02/29 02:29:06;;;;;;;1.75;1.55;;;0.50;99.90;;;;;;4987181;28;20043;-83
2024/02/29 02:31:32;;;;;;;4.47;2.03;;;0.50;99.90;;;;;;4987219;28;20030;-83
2024/02/29 02:33:58;;;;;;;2.80;1.70;;;0.50;99.90;;;;;;4982032;28;20039;-83
2024/02/29 02:36:24;;;;;;;2.65;2.28;;;0.40;99.90;;;;;;4981256;28;20030;-85
2024/02/29 02:38:51;;;;;;;2.05;1.10;;;0.40;99.90;;;;;;4962508;28;20043;-82
2024/02/29 02:41:17;;;;;;;2.63;2.40;;;0.30;99.90;;;;;;4985096;28;20038;-85
2024/02/29 02:43:48;;;;;;;1.75;1.00;;;0.10;99.90;;;;;;4987327;28;20092;-81
2024/02/29 02:46:14;;;;;;;8.02;4.50;;;0.00;99.90;;;;;;4985269;28;20042;-84
2024/02/29 02:48:40;;;;;;;2.75;1.50;;;-0.10;99.90;;;;;;4963841;28;20046;-85
2024/02/29 02:51:07;;;;;;;6.10;2.08;;;-0.10;1.00;;;;;;4978663;28;20041;-83
2024/02/29 02:53:33;;;;;;;2.10;1.92;;;0.00;1.00;;;;;;4982063;28;20046;-83
2024/02/29 02:55:59;;;;;;;1.88;0.93;;;0.00;1.00;;;;;;4979925;28;20034;-84
2024/02/29 02:58:25;;;;;;;1.77;1.58;;;0.10;1.00;;;;;;4985486;28;20034;-83
2024/02/29 03:00:52;;;;;;;3.17;1.98;;;0.00;1.00;;;;;;4985768;28;20519;-81
2024/02/29 03:03:18;;;;;;;3.83;2.05;;;-0.10;1.00;;;;;;4988814;28;20027;-82
2024/02/29 03:05:44;;;;;;;2.20;1.92;;;-0.20;1.00;;;;;;4981526;28;20037;-86
2024/02/29 03:08:10;;;;;;;1.50;1.40;;;-0.20;1.00;;;;;;4980897;28;20562;-86
2024/02/29 03:10:36;;;;;;;1.77;1.25;;;-0.30;1.00;;;;;;4985378;28;20574;-85
2024/02/29 03:13:02;;;;;;;2.13;1.98;;;-0.20;1.00;;;;;;4982936;28;20035;-85
2024/02/29 03:15:28;;;;;;;1.77;1.67;;;0.00;1.00;;;;;;4990097;28;20050;-86
2024/02/29 03:17:55;;;;;;;1.13;1.02;;;-0.10;1.00;;;;;;4984901;28;20041;-85
2024/02/29 03:20:22;;;;;;;4.72;2.15;;;-0.10;1.00;;;;;;4985047;28;20035;-85
2024/02/29 03:22:48;;;;;;;1.67;1.58;;;-0.10;1.00;;;;;;4967145;28;20034;-85
2024/02/29 03:25:14;;;;;;;1.95;1.80;;;-0.10;1.00;;;;;;4979358;28;20045;-85
2024/02/29 03:27:41;;;;;;;2.50;1.10;;;-0.10;1.00;;;;;;4987105;28;20035;-86
2024/02/29 03:30:08;;;;;;;2.25;2.08;;;-0.10;99.90;;;;;;4985495;28;20053;-84
2024/02/29 03:32:34;;;;;;;6.82;2.35;;;0.00;99.90;;;;;;4986376;28;20508;-84
2024/02/29 03:35:02;;;;;;;2.05;1.35;;;0.00;99.90;;;;;;4982361;28;20034;-83
2024/02/29 03:37:28;;;;;;;2.75;1.77;;;0.00;99.90;;;;;;4963478;28;20038;-85
2024/02/29 03:39:54;;;;;;;0.90;0.90;;;0.10;99.90;;;;;;4978971;28;20038;-84
2024/02/29 03:42:20;;;;;;;5.03;0.60;;;0.00;99.90;;;;;;4984737;28;20058;-85
2024/02/29 03:44:47;;;;;;;6.95;1.80;;;-0.20;99.90;;;;;;4985532;28;20037;-85
2024/02/29 03:47:13;;;;;;;4.63;2.17;;;-0.20;99.90;;;;;;4968085;28;20045;-86
2024/02/29 03:49:39;;;;;;;2.78;1.95;;;-0.10;99.90;;;;;;4985891;28;20042;-83
2024/02/29 03:52:05;;;;;;;3.47;3.20;;;-0.20;99.90;;;;;;4983138;28;20049;-86
2024/02/29 03:54:31;;;;;;;4.63;3.03;;;-0.20;99.90;;;;;;4980071;28;20035;-85
2024/02/29 03:56:57;;;;;;;1.27;1.17;;;-0.10;99.90;;;;;;4983196;28;20033;-85
2024/02/29 03:59:25;;;;;;;4.75;1.60;;;-0.10;99.90;;;;;;4985741;28;20054;-85
2024/02/29 04:01:51;;;;;;;5.97;2.08;;;-0.10;99.90;;;;;;4984677;28;20038;-85
2024/02/29 04:04:18;;;;;;;4.13;2.53;;;-0.20;99.90;;;;;;4987186;28;20030;-85
2024/02/29 04:06:45;;;;;;;1.85;1.75;;;-0.30;99.90;;;;;;4982627;28;20392;-86
2024/02/29 04:09:12;;;;;;;1.05;0.95;;;-0.30;99.90;;;;;;4981731;28;20039;-85
2024/02/29 04:11:38;;;;;;;2.88;2.67;;;-0.30;99.90;;;;;;4975087;28;20047;-85
2024/02/29 04:14:05;;;;;;;9.38;3.20;;;-0.30;99.90;;;;;;4988761;28;20046;-85
2024/02/29 04:16:35;;;;;;;1.85;1.10;;;-0.30;99.90;;;;;;4974997;28;20039;-85
2024/02/29 04:19:03;;;;;;;3.20;2.05;;;-0.30;99.90;;;;;;4981566;28;20404;-86
2024/02/29 04:21:29;;;;;;;0.68;0.63;;;-0.40;99.90;;;;;;4992937;28;20023;-83
2024/02/29 04:23:55;;;;;;;1.15;0.50;;;-0.50;99.90;;;;;;5009185;28;20021;-81
2024/02/29 04:26:24;;;;;;;3.50;2.47;;;-0.50;99.90;;;;;;5007868;28;20038;-85
2024/02/29 04:28:50;;;;;;;1.13;1.02;;;-0.60;99.90;;;;;;5001701;28;20030;-85
2024/02/29 04:31:18;;;;;;;12.68;2.97;;;-0.70;99.90;;;;;;4991770;28;20031;-86
2024/02/29 04:33:44;;;;;;;3.75;3.17;;;-0.80;99.90;;;;;;4987426;28;20057;-86
2024/02/29 04:36:11;;;;;;;1.30;1.20;;;-0.80;99.90;;;;;;4984780;28;20042;-85
2024/02/29 04:38:37;;;;;;;2.05;1.88;;;-0.80;99.90;;;;;;4983647;28;20049;-85
2024/02/29 04:41:04;;;;;;;1.02;1.02;;;-0.80;1.00;;;;;;4988682;28;20215;-85
2024/02/29 04:43:30;;;;;;;3.72;1.08;;;-0.80;1.00;;;;;;4989241;28;20051;-85
2024/02/29 04:45:56;;;;;;;5.88;1.73;;;-0.90;1.00;;;;;;4988788;28;20061;-82
2024/02/29 04:48:22;;;;;;;1.95;1.77;;;-0.90;1.00;;;;;;4991072;28;20026;-85
2024/02/29 04:50:49;;;;;;;1.27;1.17;;;-0.90;1.00;;;;;;4990040;28;20034;-85
2024/02/29 04:53:15;;;;;;;3.53;2.13;;;-0.90;1.00;;;;;;4983260;28;20045;-85
2024/02/29 04:55:41;;;;;;;1.85;1.25;;;-1.10;99.90;;;;;;4982381;28;20022;-85
2024/02/29 04:58:08;;;;;;;1.85;1.55;;;-1.20;99.90;;;;;;4986746;28;20031;-85
2024/02/29 05:00:34;;;;;;;1.45;1.35;;;-1.30;1.00;;;;;;4988252;28;20238;-85
2024/02/29 05:03:00;;;;;;;2.78;2.58;;;-1.30;1.00;;;;;;4943189;28;20047;-86
2024/02/29 05:05:27;;;;;;;1.90;1.80;;;-1.30;1.00;;;;;;4985902;28;20041;-85
2024/02/29 05:07:54;;;;;;;14.25;2.50;;;-1.10;1.00;;;;;;4983696;28;20042;-85
2024/02/29 05:10:21;;;;;;;4.18;2.42;;;-1.00;1.00;;;;;;4986342;28;20042;-85
2024/02/29 05:12:50;;;;;;;4.38;3.22;;;-0.90;1.00;;;;;;4969516;28;20396;-85
2024/02/29 05:15:22;;;;;;;0.90;0.90;;;-1.00;1.00;;;;;;4984724;28;20030;-83
2024/02/29 05:17:49;;;;;;;6.32;4.13;;;-1.10;1.00;;;;;;4981748;28;20487;-85
2024/02/29 05:20:16;;;;;;;2.33;0.95;;;-1.20;1.00;;;;;;4983720;28;20043;-83
2024/02/29 05:22:43;;;;;;;6.90;1.42;;;-1.30;1.00;;;;;;4982650;28;20035;-84
2024/02/29 05:25:13;;;;;;;1.25;1.15;;;-1.30;1.00;;;;;;4985205;28;20392;-83
2024/02/29 05:27:39;;;;;;;1.73;1.63;;;-1.30;1.00;;;;;;4987166;28;20042;-84
2024/02/29 05:30:06;;;;;;;7.65;1.75;;;-1.30;1.00;;;;;;4986306;28;20030;-83
2024/02/29 05:32:32;;;;;;;1.98;1.40;;;-1.30;1.00;;;;;;4989298;28;20030;-85
2024/02/29 05:34:58;;;;;;;1.73;1.63;;;-1.40;23.10;;;;;;4984062;28;20035;-82
2024/02/29 05:37:24;;;;;;;1.13;1.10;;;-1.20;42.80;;;;;;4982696;28;20035;-82
2024/02/29 05:39:51;;;;;;;1.75;1.65;;;-1.20;58.00;;;;;;4983157;28;20031;-85
2024/02/29 05:42:17;;;;;;;1.67;1.55;;;-1.20;74.70;;;;;;4984941;28;20094;-84
2024/02/29 05:44:43;;;;;;;6.07;2.67;;;-1.30;78.60;;;;;;4987882;28;20042;-85
2024/02/29 05:47:09;;;;;;;7.78;3.42;;;-1.40;84.00;;;;;;4983707;28;20042;-85
2024/02/29 05:49:35;;;;;;;1.85;1.75;;;-1.40;88.00;;;;;;4984540;28;20054;-86
2024/02/29 05:52:01;;;;;;;3.38;1.98;;;-1.40;99.90;;;;;;4982809;28;20042;-86
2024/02/29 05:54:28;;;;;;;2.30;2.13;;;-1.40;99.90;;;;;;4983463;28;20037;-86
2024/02/29 05:56:55;;;;;;;1.30;1.27;;;-1.50;99.90;;;;;;4985960;28;20038;-85
2024/02/29 05:59:21;;;;;;;4.68;3.83;;;-1.50;99.90;;;;;;4985759;28;20388;-84
2024/02/29 06:01:48;;;;;;;1.98;1.85;;;-1.50;99.90;;;;;;4969491;28;20045;-84
2024/02/29 06:04:14;;;;;;;4.40;3.47;;;-1.40;99.90;;;;;;4987039;28;20031;-84
2024/02/29 06:06:40;;;;;;;3.95;2.88;;;-1.20;99.90;;;;;;4981240;28;20468;-84
2024/02/29 06:09:06;;;;;;;2.45;2.25;;;-1.30;99.90;;;;;;4980797;28;20034;-83
2024/02/29 06:11:32;;;;;;;2.15;2.05;;;-1.30;99.90;;;;;;4968157;28;20380;-84
2024/02/29 06:14:02;;;;;;;0.98;0.98;;;-1.40;99.90;;;;;;4987588;28;20027;-82
2024/02/29 06:16:28;;;;;;;3.47;2.03;;;-1.40;99.90;;;;;;4970215;28;20038;-84
2024/02/29 06:18:55;;;;;;;3.10;2.47;;;-1.40;99.90;;;;;;4986830;28;20495;-84
2024/02/29 06:21:22;;;;;;;3.10;2.75;;;-1.40;99.90;;;;;;4984810;28;20054;-89
2024/02/29 06:23:48;;;;;;;2.88;1.23;;;-1.40;99.90;;;;;;4982591;28;20050;-87
2024/02/29 06:26:15;;;;;;;0.82;0.82;;;-1.30;99.90;;;;;;4980336;28;20042;-85
2024/02/29 06:28:41;;;;;;;4.45;2.90;;;-1.20;99.90;;;;;;4986915;28;20034;-86
2024/02/29 06:31:08;;;;;;;5.85;2.92;;;-1.20;99.90;;;;;;4986622;28;20357;-85
2024/02/29 06:33:35;;;;;;;4.53;2.40;;;-1.20;99.90;;;;;;4983754;28;20030;-85
2024/02/29 06:36:05;;;;;;;2.78;2.53;;;-1.20;99.90;;;;;;4983590;28;20026;-85
2024/02/29 06:38:31;;;;;;;5.18;4.10;;;-1.20;99.90;;;;;;4979243;28;20030;-86
2024/02/29 06:40:58;;;;;;;1.42;1.33;;;-1.20;53.00;;;;;;4984963;28;20034;-83
2024/02/29 06:43:24;;;;;;;1.33;1.23;;;-1.20;6.40;;;;;;4984053;28;20058;-85
2024/02/29 06:45:50;;;;;;;13.70;3.30;;;-1.20;1.00;;;;;;4986224;28;20045;-84
2024/02/29 06:48:17;;;;;;;2.17;2.08;;;-1.20;1.00;;;;;;4983609;28;20031;-85
2024/02/29 06:50:44;;;;;;;4.32;1.85;;;-1.20;1.00;;;;;;4984154;28;20042;-83
2024/02/29 06:53:12;;;;;;;2.75;2.55;;;-1.00;1.00;;;;;;4981292;28;20472;-84
2024/02/29 06:55:38;;;;;;;2.95;2.75;;;-1.00;1.00;;;;;;4980643;28;20038;-83
2024/02/29 06:58:05;;;;;;;2.28;2.17;;;-0.90;1.00;;;;;;4978618;28;20053;-81
2024/02/29 07:00:32;;;;;;;3.53;3.05;;;-0.80;1.00;;;;;;4981582;28;20053;-83
2024/02/29 07:03:00;;;;;;;8.48;3.95;;;-0.60;1.00;;;;;;4986911;28;20034;-82
2024/02/29 07:05:26;;;;;;;4.07;3.58;;;-0.50;1.00;;;;;;4982889;28;20033;-83
2024/02/29 07:07:54;;;;;;;2.28;2.08;;;-0.30;1.00;;;;;;4981925;28;20037;-84
2024/02/29 07:10:21;;;;;;;3.67;2.80;;;-0.20;1.00;;;;;;4976019;28;20051;-83
2024/02/29 07:12:47;;;;;;;1.67;1.58;;;-0.10;99.90;;;;;;4998032;28;20042;-81
2024/02/29 07:15:14;;;;;;;1.35;1.25;;;0.10;99.90;;;;;;4989595;28;20042;-81
2024/02/29 07:17:41;;;;;;;3.25;2.92;;;0.20;99.90;;;;;;4985220;28;20037;-81
2024/02/29 07:20:13;;;;;;;13.48;2.55;;;0.40;99.90;;;;;;4981885;28;20043;-80
2024/02/29 07:22:40;;;;;;;4.53;3.25;;;0.60;99.90;;;;;;4982689;28;20026;-81
2024/02/29 07:25:07;;;;;;;8.07;3.30;;;0.60;99.90;;;;;;4986759;28;20030;-81
2024/02/29 07:27:39;;;;;;;2.40;2.25;;;0.70;87.70;;;;;;4986474;28;20491;-83
2024/02/29 07:30:09;;;;;;;4.10;3.08;;;0.80;67.60;;;;;;4990744;28;20030;-83
2024/02/29 07:32:36;;;;;;;1.23;1.17;;;0.90;62.70;;;;;;4983984;28;20038;-81
2024/02/29 07:35:02;;;;;;;3.85;3.65;;;1.10;66.50;;;;;;4983631;28;20026;-80
2024/02/29 07:37:28;;;;;;;2.70;2.50;;;1.30;71.30;;;;;;4980430;28;20364;-80
2024/02/29 07:39:54;;;;;;;3.45;3.08;;;1.50;35.90;;;;;;4979031;28;20039;-81
2024/02/29 07:42:20;;;;;;;2.33;2.15;;;1.80;1.00;;;;;;4984110;28;20062;-81
2024/02/29 07:44:47;;;;;;;4.15;3.05;;;2.00;1.00;;;;;;4984683;28;20034;-79
2024/02/29 07:47:13;;;;;;;11.18;5.20;;;2.20;1.00;;;;;;4983935;28;20026;-81
2024/02/29 07:49:39;;;;;;;1.65;1.60;;;2.50;1.00;;;;;;4983288;28;20519;-81
2024/02/29 07:52:05;;;;;;;5.00;2.55;;;2.70;1.00;;;;;;4982755;28;20027;-79
2024/02/29 07:54:32;;;;;;;3.25;3.03;;;2.90;1.00;;;;;;4981627;28;20031;-80
2024/02/29 07:56:58;;;;;;;1.63;1.52;;;3.10;1.00;;;;;;4981869;28;20042;-81
2024/02/29 07:59:25;;;;;;;7.50;4.03;;;3.20;1.00;;;;;;4984482;28;20039;-81
2024/02/29 08:01:51;;;;;;;6.78;4.43;;;3.30;1.00;;;;;;4984611;28;20043;-82
2024/02/29 08:04:17;;;;;;;2.50;1.80;;;3.50;1.00;;;;;;4981914;28;20397;-81
2024/02/29 08:06:44;;;;;;;3.72;2.63;;;3.60;1.00;;;;;;4962683;28;20035;-80
2024/02/29 08:09:10;;;;;;;6.13;4.85;;;3.80;1.00;;;;;;4976774;28;20468;-79
2024/02/29 08:11:36;;;;;;;2.42;2.10;;;3.90;1.00;;;;;;4982520;28;20042;-79
2024/02/29 08:14:02;;;;;;;2.58;2.38;;;4.10;1.00;;;;;;4985119;28;20141;-79
2024/02/29 08:16:28;;;;;;;5.30;4.30;;;4.40;1.00;;;;;;4986351;28;20042;-80
2024/02/29 08:18:54;;;;;;;10.63;5.03;;;4.60;1.00;;;;;;4984604;28;20392;-79
2024/02/29 08:21:21;;;;;;;7.78;3.53;;;4.90;99.90;;;;;;4982091;28;20030;-80
2024/02/29 08:23:47;;;;;;;3.83;3.60;;;5.10;99.90;;;;;;4980932;28;20062;-80
2024/02/29 08:26:13;;;;;;;4.05;3.55;;;5.20;99.90;;;;;;4993340;28;20042;-80
2024/02/29 08:28:42;;;;;;;7.03;5.15;;;5.30;99.90;;;;;;4985601;28;20392;-81
2024/02/29 08:31:08;;;;;;;4.82;2.75;;;5.40;99.90;;;;;;4983675;28;20058;-79
2024/02/29 08:33:34;;;;;;;6.20;4.00;;;5.50;99.90;;;;;;4984344;28;20046;-81
2024/02/29 08:36:02;;;;;;;5.35;3.10;;;5.50;99.90;;;;;;4979627;28;20047;-80
2024/02/29 08:38:28;;;;;;;5.00;3.58;;;5.60;99.90;;;;;;4978527;28;20045;-81
2024/02/29 08:40:54;;;;;;;7.88;4.15;;;5.90;99.90;;;;;;4991787;28;20045;-80
2024/02/29 08:43:21;;;;;;;5.65;4.30;;;6.00;99.90;;;;;;4983507;28;20046;-81
2024/02/29 08:45:49;;;;;;;2.25;2.08;;;6.00;99.90;;;;;;4985904;28;20496;-81
2024/02/29 08:48:15;;;;;;;5.72;5.20;;;6.10;99.90;;;;;;4983023;28;20053;-81
2024/02/29 08:50:42;;;;;;;3.25;3.03;;;6.30;99.90;;;;;;4982998;28;20046;-80
2024/02/29 08:53:08;;;;;;;4.97;2.17;;;6.40;99.90;;;;;;4983224;28;20038;-82
2024/02/29 08:55:34;;;;;;;4.45;3.65;;;6.50;99.90;;;;;;4984529;28;20041;-77
2024/02/29 08:58:00;;;;;;;7.97;4.32;;;6.60;99.90;;;;;;4987371;28;20039;-82
2024/02/29 09:00:26;;;;;;;4.45;3.38;;;7.00;99.90;;;;;;4988888;28;20031;-82
2024/02/29 09:02:53;;;;;;;3.20;2.95;;;7.20;69.60;;;;;;4989403;28;20053;-82
2024/02/29 09:05:19;;;;;;;8.15;3.22;;;7.40;44.40;;;;;;4984647;28;20030;-83
2024/02/29 09:07:45;;;;;;;7.80;5.00;;;7.60;2.30;;;;;;4982034;28;20061;-81
2024/02/29 09:10:12;;;;;;;6.60;3.38;;;7.70;1.00;;;;;;4985855;28;20039;-82
2024/02/29 09:12:38;;;;;;;2.00;1.83;;;7.80;1.00;;;;;;4989200;28;20035;-82
2024/02/29 09:15:05;;;;;;;4.75;3.58;;;8.00;1.00;;;;;;4989795;28;20046;-82
2024/02/29 09:17:31;;;;;;;6.20;3.70;;;7.70;1.00;;;;;;4985113;28;20026;-82
2024/02/29 09:19:57;;;;;;;4.80;4.13;;;7.80;1.00;;;;;;4985767;28;20034;-82
2024/02/29 09:22:23;;;;;;;4.90;2.63;;;8.00;1.00;;;;;;4981676;28;20046;-83
2024/02/29 09:24:50;;;;;;;3.55;3.00;;;8.10;1.00;;;;;;4983303;28;20034;-82
2024/02/29 09:27:16;;;;;;;5.20;3.30;;;8.30;99.90;;;;;;4983106;28;20030;-83
2024/02/29 09:29:42;;;;;;;2.45;2.10;;;8.40;99.90;;;;;;4987887;28;20475;-85
2024/02/29 09:32:08;;;;;;;6.85;2.50;;;8.60;99.90;;;;;;4988638;28;20039;-81
2024/02/29 09:34:37;;;;;;;2.67;2.25;;;8.70;99.90;;;;;;4990128;28;20038;-81
2024/02/29 09:37:04;;;;;;;8.95;3.10;;;8.80;99.90;;;;;;4980811;28;20027;-83
2024/02/29 09:39:30;;;;;;;6.53;3.10;;;9.10;99.90;;;;;;4981560;28;20031;-82
2024/02/29 09:41:57;;;;;;;1.75;1.23;;;9.10;99.90;;;;;;4986232;28;20042;-81
2024/02/29 09:44:24;;;;;;;5.88;3.08;;;8.90;99.90;;;;;;4988037;28;20093;-83
2024/02/29 09:46:50;;;;;;;3.15;1.92;;;9.00;99.90;;;;;;4987537;28;20035;-82
2024/02/29 09:49:17;;;;;;;2.75;2.15;;;8.80;99.90;;;;;;4985989;28;20037;-82
2024/02/29 09:51:44;;;;;;;6.70;4.03;;;8.80;99.90;;;;;;4991701;28;20038;-82
2024/02/29 09:54:20;;;;;;;3.40;1.65;;;9.00;99.90;;;;;;5005438;28;20033;-77
2024/02/29 09:56:46;;;;;;;6.03;3.63;;;9.00;99.90;;;;;;5004489;28;20036;-81
2024/02/29 09:59:17;;;;;;;2.78;2.58;;;9.30;99.90;;;;;;5007354;28;20031;-81
2024/02/29 10:01:55;;;;;;;1.98;1.65;;;9.20;99.90;;;;;;4999198;28;20035;-82
2024/02/29 10:04:21;;;;;;;1.65;1.55;;;9.20;99.90;;;;;;4984196;28;20034;-82
2024/02/29 10:06:47;;;;;;;9.50;3.90;;;9.00;99.90;;;;;;4986085;28;20026;-82
2024/02/29 10:09:13;;;;;;;11.82;2.55;;;8.80;99.90;;;;;;4982170;28;20037;-80
2024/02/29 10:11:40;;;;;;;4.25;2.95;;;8.70;99.90;;;;;;4985500;28;20054;-80
2024/02/29 10:14:26;;;;;;;2.78;2.00;;;8.70;99.90;;;;;;4987460;28;20038;-80
2024/02/29 10:16:53;;;;;;;2.88;2.38;;;8.70;99.90;;;;;;4983136;28;20047;-80
2024/02/29 10:19:21;;;;;;;4.63;2.95;;;8.90;99.90;;;;;;4986424;28;20415;-80
2024/02/29 10:21:48;;;;;;;7.93;3.28;;;8.90;99.90;;;;;;4981544;28;20035;-81
2024/02/29 10:24:14;;;;;;;2.25;2.08;;;9.00;99.90;;;;;;4979272;28;20036;-79
2024/02/29 10:26:40;;;;;;;2.65;2.45;;;9.10;99.90;;;;;;4984805;28;20133;-81
2024/02/29 10:29:10;;;;;;;4.93;2.70;;;9.10;85.60;;;;;;4985095;28;20472;-81
2024/02/29 10:31:37;;;;;;;4.03;2.10;;;9.20;77.00;;;;;;4986225;28;20053;-81
2024/02/29 10:34:03;;;;;;;2.20;1.98;;;9.30;27.30;;;;;;4985346;28;20043;-81
2024/02/29 10:36:32;;;;;;;2.42;2.13;;;9.30;52.70;;;;;;4980444;28;20138;-81
2024/02/29 10:38:58;;;;;;;1.58;1.45;;;9.30;54.60;;;;;;4980605;28;20047;-82
2024/02/29 10:41:30;;;;;;;4.47;2.80;;;9.40;5.90;;;;;;4981160;28;20039;-84
2024/02/29 10:44:01;;;;;;;2.72;2.33;;;9.30;21.70;;;;;;4984323;28;20350;-82
2024/02/29 10:46:28;;;;;;;7.32;2.35;;;9.30;28.40;;;;;;4983595;28;20043;-82
2024/02/29 10:49:16;;;;;;;5.13;2.33;;;9.30;10.60;;;;;;4973569;28;20404;-81
2024/02/29 10:51:43;;;;;;;2.15;1.75;;;9.30;28.00;;;;;;4985104;28;20050;-82
2024/02/29 10:54:19;;;;;;;3.00;1.95;;;9.40;28.00;;;;;;4981401;28;20034;-84
2024/02/29 10:56:46;;;;;;;3.33;2.45;;;9.60;1.00;;;;;;4982783;28;20053;-83
2024/02/29 10:59:16;;;;;;;2.08;1.65;;;9.40;6.60;;;;;;4998136;28;20042;-80
2024/02/29 11:01:44;;;;;;;2.40;2.20;;;9.60;1.00;;;;;;4987522;28;20031;-84
2024/02/29 11:04:11;;;;;;;2.58;1.95;;;9.50;1.00;;;;;;4991676;28;20038;-81
2024/02/29 11:06:45;;;;;;;2.38;2.17;;;9.40;1.00;;;;;;4982100;28;20038;-79
2024/02/29 11:09:17;;;;;;;2.92;2.25;;;9.00;21.50;;;;;;4984770;28;20033;-81
2024/02/29 11:11:45;;;;;;;3.78;2.42;;;8.90;50.80;;;;;;4988078;28;20046;-81
2024/02/29 11:14:15;;;;;;;3.08;2.78;;;9.30;61.10;;;;;;4986681;28;20098;-81
2024/02/29 11:16:43;;;;;;;2.70;2.20;;;9.50;1.00;;;;;;4989515;28;20352;-85
2024/02/29 11:19:14;;;;;;;1.75;1.65;;;9.70;1.00;;;;;;4984555;28;20030;-81
2024/02/29 11:21:41;;;;;;;2.90;2.70;;;9.80;1.00;;;;;;4982123;28;20038;-82
2024/02/29 11:24:08;;;;;;;32.80;2.13;;;10.00;1.00;;;;;;4984895;28;20037;-80
2024/02/29 11:26:35;;;;;;;3.08;1.58;;;9.80;1.00;;;;;;4981469;28;20037;-83
2024/02/29 11:29:18;;;;;;;4.97;1.88;;;9.90;1.00;;;;;;4989179;28;20030;-81
2024/02/29 11:31:51;;;;;;;4.57;2.35;;;10.10;1.00;;;;;;4988474;28;20038;-81
2024/02/29 11:34:18;;;;;;;1.38;1.27;;;10.30;1.00;;;;;;4991098;28;20035;-80
2024/02/29 11:36:47;;;;;;;13.48;3.03;;;10.10;1.00;;;;;;4972097;28;20043;-81
2024/02/29 11:39:22;;;;;;;2.67;2.45;;;10.00;1.00;;;;;;4984281;28;20034;-80
2024/02/29 11:41:49;;;;;;;1.85;1.55;;;10.10;1.00;;;;;;4981926;28;20034;-82
2024/02/29 11:44:16;;;;;;;3.00;2.22;;;10.30;1.00;;;;;;4990220;28;20051;-78
2024/02/29 11:46:49;;;;;;;2.38;2.17;;;10.50;1.00;;;;;;4964341;28;20051;-81
2024/02/29 11:49:16;;;;;;;5.80;2.65;;;10.50;1.00;;;;;;4993721;28;20049;-79
2024/02/29 11:51:44;;;;;;;3.42;2.13;;;10.40;1.00;;;;;;4990428;28;20053;-82
2024/02/29 11:54:12;;;;;;;3.55;2.60;;;10.30;1.00;;;;;;4976088;28;20027;-82
2024/02/29 11:56:38;;;;;;;3.60;2.10;;;10.40;1.00;;;;;;4982048;28;20046;-83
2024/02/29 11:59:09;;;;;;;6.30;2.42;;;10.50;1.00;;;;;;4973332;28;20441;-82
2024/02/29 12:01:36;;;;;;;3.95;1.20;;;10.80;1.00;;;;;;4985578;28;20046;-81
2024/02/29 12:04:04;;;;;;;1.38;1.20;;;10.80;1.00;;;;;;4984376;28;20392;-82
2024/02/29 12:06:31;;;;;;;2.70;1.58;;;10.70;1.00;;;;;;4982674;28;20035;-85
2024/02/29 12:08:57;;;;;;;4.20;2.28;;;10.60;1.00;;;;;;4982222;28;20038;-82
2024/02/29 12:11:24;;;;;;;4.20;3.20;;;10.60;99.90;;;;;;4985932;28;20828;-82
2024/02/29 12:13:50;;;;;;;2.25;1.98;;;10.40;99.90;;;;;;4985766;28;20058;-82
2024/02/29 12:16:16;;;;;;;7.32;1.55;;;10.40;99.90;;;;;;4984021;28;20035;-83
2024/02/29 12:18:44;;;;;;;10.20;2.65;;;10.40;1.00;;;;;;4974359;28;20041;-84
2024/02/29 12:21:10;;;;;;;8.68;2.80;;;10.60;1.00;;;;;;4982035;28;20053;-83
2024/02/29 12:23:38;;;;;;;6.10;2.63;;;10.70;99.90;;;;;;4978306;28;20041;-82
2024/02/29 12:26:16;;;;;;;2.58;2.25;;;10.80;99.90;;;;;;4989048;28;20045;-83
2024/02/29 12:28:42;;;;;;;3.08;2.15;;;11.00;99.90;;;;;;4988277;28;20037;-82
2024/02/29 12:31:09;;;;;;;1.40;1.05;;;11.00;99.90;;;;;;4991953;28;20034;-83
2024/02/29 12:33:40;;;;;;;3.63;2.38;;;10.90;99.90;;;;;;4984523;28;20258;-82
2024/02/29 12:36:07;;;;;;;13.80;1.98;;;11.10;99.90;;;;;;4987730;28;20034;-84
2024/02/29 12:38:34;;;;;;;2.35;2.17;;;11.10;99.90;;;;;;4997167;28;20026;-82
2024/02/29 12:41:06;;;;;;;1.27;0.82;;;11.00;99.90;;;;;;5010006;28;20048;-83
2024/02/29 12:43:36;;;;;;;2.65;1.48;;;10.80;99.90;;;;;;5009682;28;20050;-84
2024/02/29 12:46:03;;;;;;;4.15;2.75;;;10.80;99.90;;;;;;5010148;28;20038;-82
2024/02/29 12:48:30;;;;;;;1.20;1.13;;;10.60;99.90;;;;;;4997558;28;20042;-83
2024/02/29 12:50:57;;;;;;;2.47;1.98;;;10.70;99.90;;;;;;4986808;28;20399;-84
2024/02/29 12:53:23;;;;;;;2.78;2.45;;;10.70;99.90;;;;;;4984219;28;20034;-83
2024/02/29 12:55:51;;;;;;;1.05;0.95;;;10.90;99.90;;;;;;4985143;28;20053;-82